createdAt,value
2017-04-13T00:00:56.135Z,13.23
2017-04-13T00:01:54.634Z,10.97
2017-04-13T00:02:53.168Z,13.45
2017-04-13T00:03:51.699Z,13.28
2017-04-13T00:04:50.209Z,16.27
2017-04-13T00:05:48.827Z,12.50
2017-04-13T00:06:47.339Z,14.48
2017-04-13T00:07:45.932Z,12.53
2017-04-13T00:08:44.571Z,14.25
2017-04-13T00:09:43.167Z,13.93
2017-04-13T00:10:41.764Z,13.83
2017-04-13T00:11:40.299Z,11.88
2017-04-13T00:12:38.803Z,12.55
2017-04-13T00:13:37.367Z,13.35
2017-04-13T00:14:35.980Z,12.93
2017-04-13T00:15:34.613Z,13.12
2017-04-13T00:16:33.271Z,14.40
2017-04-13T00:17:31.995Z,14.82
2017-04-13T00:18:30.540Z,13.33
2017-04-13T00:19:29.191Z,14.37
2017-04-13T00:20:27.831Z,15.22
2017-04-13T00:21:26.462Z,14.12
2017-04-13T00:22:25.035Z,14.62
2017-04-13T00:23:23.505Z,14.08
2017-04-13T00:24:22.056Z,15.30
2017-04-13T00:25:20.571Z,13.15
2017-04-13T00:26:19.123Z,13.42
2017-04-13T00:27:17.655Z,13.78
2017-04-13T00:28:16.160Z,13.68
2017-04-13T00:29:14.688Z,14.03
2017-04-13T00:30:13.208Z,13.75
2017-04-13T00:31:11.919Z,13.43
2017-04-13T00:32:10.523Z,14.25
2017-04-13T00:33:09.203Z,14.23
2017-04-13T00:34:07.731Z,14.18
2017-04-13T00:35:06.268Z,15.45
2017-04-13T00:36:04.764Z,16.82
2017-04-13T00:37:03.341Z,14.40
2017-04-13T00:38:01.907Z,14.70
2017-04-13T00:39:00.412Z,14.52
2017-04-13T00:39:58.915Z,12.97
2017-04-13T00:40:57.404Z,14.05
2017-04-13T00:41:56.003Z,14.42
2017-04-13T00:42:54.648Z,13.95
2017-04-13T00:43:53.245Z,13.13
2017-04-13T00:44:51.947Z,14.03
2017-04-13T00:45:50.571Z,14.82
2017-04-13T00:46:49.079Z,17.37
2017-04-13T00:47:47.659Z,13.90
2017-04-13T00:48:46.186Z,13.12
2017-04-13T00:49:44.691Z,14.30
2017-04-13T00:50:43.279Z,14.30
2017-04-13T00:51:41.823Z,14.02
2017-04-13T00:52:40.383Z,14.75
2017-04-13T00:53:38.940Z,13.27
2017-04-13T00:54:37.420Z,15.53
2017-04-13T00:55:36.031Z,14.13
2017-04-13T00:56:34.587Z,12.78
2017-04-13T00:57:33.193Z,13.68
2017-04-13T00:58:31.840Z,14.68
2017-04-13T00:59:30.399Z,14.15
2017-04-13T01:00:28.995Z,15.28
2017-04-13T01:01:27.584Z,14.20
2017-04-13T01:02:26.178Z,14.43
2017-04-13T01:03:24.731Z,14.72
2017-04-13T01:04:23.238Z,12.92
2017-04-13T01:05:21.787Z,13.95
2017-04-13T01:06:20.308Z,15.53
2017-04-13T01:07:18.823Z,15.20
2017-04-13T01:08:17.395Z,14.07
2017-04-13T01:09:15.883Z,13.95
2017-04-13T01:10:14.423Z,14.00
2017-04-13T01:11:12.955Z,14.97
2017-04-13T01:12:11.470Z,15.87
2017-04-13T01:13:09.972Z,12.55
2017-04-13T01:14:08.525Z,14.28
2017-04-13T01:15:07.038Z,14.47
2017-04-13T01:16:05.741Z,15.77
2017-04-13T01:17:04.331Z,14.57
2017-04-13T01:18:02.887Z,14.57
2017-04-13T01:19:04.745Z,14.90
2017-04-13T01:20:03.541Z,14.65
2017-04-13T01:21:02.063Z,14.82
2017-04-13T01:22:00.579Z,14.62
2017-04-13T01:22:59.218Z,14.73
2017-04-13T01:23:57.780Z,14.37
2017-04-13T01:24:56.379Z,15.10
2017-04-13T01:25:54.990Z,15.40
2017-04-13T01:26:53.491Z,14.33
2017-04-13T01:27:52.005Z,14.13
2017-04-13T01:28:50.620Z,14.30
2017-04-13T01:29:49.239Z,15.08
2017-04-13T01:30:47.774Z,13.98
2017-04-13T01:31:46.423Z,14.60
2017-04-13T01:32:44.923Z,14.07
2017-04-13T01:33:43.408Z,13.83
2017-04-13T01:34:42.035Z,14.25
2017-04-13T01:35:40.643Z,14.53
2017-04-13T01:36:39.250Z,15.40
2017-04-13T01:37:37.893Z,15.10
2017-04-13T01:38:36.404Z,15.78
2017-04-13T01:39:34.983Z,14.25
2017-04-13T01:40:33.461Z,15.80
2017-04-13T01:41:31.955Z,14.97
2017-04-13T01:42:30.484Z,14.85
2017-04-13T01:43:28.978Z,15.58
2017-04-13T01:44:27.502Z,15.30
2017-04-13T01:45:26.078Z,14.93
2017-04-13T01:46:24.676Z,15.78
2017-04-13T01:47:23.186Z,16.25
2017-04-13T01:48:21.769Z,14.70
2017-04-13T01:49:20.382Z,14.27
2017-04-13T01:50:18.919Z,15.18
2017-04-13T01:51:17.415Z,15.18
2017-04-13T01:52:16.034Z,16.30
2017-04-13T01:53:14.922Z,15.72
2017-04-13T01:54:13.476Z,15.08
2017-04-13T01:55:12.016Z,14.77
2017-04-13T01:56:10.631Z,13.20
2017-04-13T01:57:09.209Z,15.88
2017-04-13T01:58:07.796Z,13.80
2017-04-13T01:59:06.290Z,16.62
2017-04-13T02:00:04.882Z,14.15
2017-04-13T02:01:03.434Z,15.38
2017-04-13T02:02:02.056Z,14.08
2017-04-13T02:03:00.682Z,14.12
2017-04-13T02:03:59.348Z,15.38
2017-04-13T02:04:57.968Z,15.12
2017-04-13T02:05:56.574Z,14.97
2017-04-13T02:06:55.107Z,15.00
2017-04-13T02:07:53.646Z,14.37
2017-04-13T02:08:52.159Z,14.13
2017-04-13T02:09:50.679Z,13.70
2017-04-13T02:10:49.251Z,13.77
2017-04-13T02:11:47.784Z,14.88
2017-04-13T02:12:46.296Z,14.83
2017-04-13T02:13:44.811Z,14.12
2017-04-13T02:14:43.435Z,13.95
2017-04-13T02:15:41.959Z,14.88
2017-04-13T02:16:40.478Z,15.20
2017-04-13T02:17:39.032Z,13.90
2017-04-13T02:18:37.545Z,14.55
2017-04-13T02:19:36.083Z,15.13
2017-04-13T02:20:34.655Z,15.28
2017-04-13T02:21:33.206Z,13.85
2017-04-13T02:22:31.695Z,13.87
2017-04-13T02:23:30.239Z,13.83
2017-04-13T02:24:28.880Z,14.17
2017-04-13T02:25:27.530Z,14.05
2017-04-13T02:26:26.166Z,15.70
2017-04-13T02:27:24.779Z,13.05
2017-04-13T02:28:23.330Z,14.92
2017-04-13T02:29:22.103Z,14.62
2017-04-13T02:30:20.731Z,13.37
2017-04-13T02:31:19.231Z,15.48
2017-04-13T02:32:17.803Z,15.18
2017-04-13T02:33:16.299Z,14.38
2017-04-13T02:34:14.775Z,13.50
2017-04-13T02:35:13.284Z,14.12
2017-04-13T02:36:11.815Z,13.25
2017-04-13T02:37:10.338Z,14.97
2017-04-13T02:38:08.914Z,14.18
2017-04-13T02:39:07.487Z,14.68
2017-04-13T02:40:06.046Z,15.47
2017-04-13T02:41:04.607Z,14.53
2017-04-13T02:42:03.171Z,15.85
2017-04-13T02:43:01.683Z,15.32
2017-04-13T02:44:00.187Z,13.07
2017-04-13T02:44:58.691Z,14.18
2017-04-13T02:45:57.249Z,14.53
2017-04-13T02:46:55.876Z,16.28
2017-04-13T02:47:54.491Z,15.13
2017-04-13T02:48:53.088Z,16.20
2017-04-13T02:49:52.512Z,15.00
2017-04-13T02:50:51.015Z,16.35
2017-04-13T02:51:49.515Z,14.72
2017-04-13T02:52:48.043Z,16.28
2017-04-13T02:53:46.567Z,15.47
2017-04-13T02:54:45.081Z,15.30
2017-04-13T02:55:43.632Z,15.25
2017-04-13T02:56:42.232Z,15.77
2017-04-13T02:57:40.831Z,15.85
2017-04-13T02:58:39.360Z,14.58
2017-04-13T02:59:37.899Z,14.48
2017-04-13T03:00:36.581Z,14.70
2017-04-13T03:01:35.255Z,14.35
2017-04-13T03:02:33.770Z,14.70
2017-04-13T03:03:32.284Z,14.67
2017-04-13T03:04:30.783Z,15.88
2017-04-13T03:05:29.309Z,15.23
2017-04-13T03:06:27.812Z,14.00
2017-04-13T03:07:26.427Z,15.75
2017-04-13T03:08:25.007Z,16.13
2017-04-13T03:09:23.651Z,15.75
2017-04-13T03:10:22.391Z,13.80
2017-04-13T03:11:20.911Z,14.37
2017-04-13T03:12:19.519Z,14.38
2017-04-13T03:13:18.211Z,14.98
2017-04-13T03:14:16.887Z,14.02
2017-04-13T03:15:15.390Z,15.83
2017-04-13T03:16:13.959Z,15.13
2017-04-13T03:17:12.497Z,14.43
2017-04-13T03:18:11.009Z,16.22
2017-04-13T03:19:09.549Z,15.25
2017-04-13T03:20:08.106Z,15.67
2017-04-13T03:21:06.688Z,14.77
2017-04-13T03:22:05.204Z,14.83
2017-04-13T03:23:03.735Z,16.85
2017-04-13T03:24:02.330Z,16.48
2017-04-13T03:25:00.976Z,16.65
2017-04-13T03:25:59.551Z,15.93
2017-04-13T03:26:58.068Z,15.08
2017-04-13T03:27:56.632Z,16.45
2017-04-13T03:28:55.416Z,16.27
2017-04-13T03:29:54.051Z,16.72
2017-04-13T03:30:52.667Z,15.93
2017-04-13T03:31:51.375Z,16.40
2017-04-13T03:32:49.921Z,17.43
2017-04-13T03:33:48.451Z,16.30
2017-04-13T03:34:46.947Z,16.83
2017-04-13T03:35:45.603Z,16.50
2017-04-13T03:36:44.134Z,15.93
2017-04-13T03:37:42.648Z,17.55
2017-04-13T03:38:41.160Z,17.03
2017-04-13T03:39:39.680Z,17.77
2017-04-13T03:40:38.167Z,17.50
2017-04-13T03:41:36.695Z,16.48
2017-04-13T03:42:35.179Z,17.83
2017-04-13T03:43:33.723Z,17.28
2017-04-13T03:44:32.303Z,17.30
2017-04-13T03:45:30.853Z,19.40
2017-04-13T03:46:29.418Z,16.88
2017-04-13T03:47:27.915Z,17.57
2017-04-13T03:48:26.496Z,17.18
2017-04-13T03:49:24.982Z,17.43
2017-04-13T03:50:23.487Z,18.18
2017-04-13T03:51:22.000Z,18.97
2017-04-13T03:52:20.506Z,17.15
2017-04-13T03:53:18.990Z,17.47
2017-04-13T03:54:17.554Z,19.65
2017-04-13T03:55:16.110Z,17.50
2017-04-13T03:56:14.643Z,20.22
2017-04-13T03:57:13.141Z,18.58
2017-04-13T03:58:11.696Z,19.72
2017-04-13T03:59:10.288Z,19.65
2017-04-13T04:00:08.819Z,20.22
2017-04-13T04:01:07.499Z,19.45
2017-04-13T04:02:06.035Z,20.58
2017-04-13T04:03:04.535Z,19.10
2017-04-13T04:04:03.059Z,19.18
2017-04-13T04:05:01.570Z,20.83
2017-04-13T04:06:00.130Z,19.45
2017-04-13T04:06:58.658Z,19.43
2017-04-13T04:07:57.208Z,20.20
2017-04-13T04:08:55.734Z,19.58
2017-04-13T04:09:54.232Z,20.52
2017-04-13T04:10:52.752Z,20.02
2017-04-13T04:11:51.258Z,19.23
2017-04-13T04:12:49.823Z,20.22
2017-04-13T04:13:48.371Z,20.07
2017-04-13T04:14:46.951Z,20.60
2017-04-13T04:15:45.563Z,21.38
2017-04-13T04:16:45.358Z,19.28
2017-04-13T04:17:44.279Z,20.13
2017-04-13T04:18:42.810Z,21.73
2017-04-13T04:19:41.375Z,19.70
2017-04-13T04:20:40.035Z,19.35
2017-04-13T04:21:38.568Z,18.82
2017-04-13T04:22:37.192Z,20.05
2017-04-13T04:23:35.815Z,20.87
2017-04-13T04:24:34.404Z,20.27
2017-04-13T04:25:33.090Z,19.95
2017-04-13T04:26:31.599Z,19.53
2017-04-13T04:27:30.147Z,20.32
2017-04-13T04:28:28.659Z,20.03
2017-04-13T04:29:27.164Z,21.03
2017-04-13T04:30:25.691Z,19.95
2017-04-13T04:31:24.207Z,19.35
2017-04-13T04:32:22.694Z,20.53
2017-04-13T04:33:21.211Z,20.45
2017-04-13T04:34:19.812Z,21.25
2017-04-13T04:35:18.392Z,20.75
2017-04-13T04:36:16.966Z,19.70
2017-04-13T04:37:15.494Z,20.25
2017-04-13T04:38:14.000Z,20.42
2017-04-13T04:39:12.504Z,18.73
2017-04-13T04:40:11.047Z,19.72
2017-04-13T04:41:09.563Z,19.83
2017-04-13T04:42:08.090Z,20.65
2017-04-13T04:43:06.817Z,21.05
2017-04-13T04:44:05.352Z,20.20
2017-04-13T04:45:03.955Z,19.52
2017-04-13T04:46:02.474Z,19.15
2017-04-13T04:47:00.991Z,19.85
2017-04-13T04:47:59.632Z,20.70
2017-04-13T04:48:58.187Z,21.45
2017-04-13T04:49:56.707Z,20.32
2017-04-13T04:50:55.280Z,21.62
2017-04-13T04:51:53.784Z,21.17
2017-04-13T04:52:52.359Z,21.12
2017-04-13T04:53:50.915Z,17.98
2017-04-13T04:54:49.426Z,22.63
2017-04-13T04:55:48.087Z,21.22
2017-04-13T04:56:46.592Z,21.33
2017-04-13T04:57:45.100Z,20.83
2017-04-13T04:58:43.621Z,20.37
2017-04-13T04:59:42.271Z,19.97
2017-04-13T05:00:40.907Z,19.62
2017-04-13T05:01:39.403Z,19.55
2017-04-13T05:02:37.902Z,22.38
2017-04-13T05:03:36.420Z,19.45
2017-04-13T05:04:35.007Z,18.67
2017-04-13T05:05:33.533Z,17.50
2017-04-13T05:06:32.083Z,18.40
2017-04-13T05:07:30.546Z,17.87
2017-04-13T05:08:29.479Z,19.17
2017-04-13T05:09:28.069Z,20.28
2017-04-13T05:10:26.635Z,18.53
2017-04-13T05:11:25.127Z,19.53
2017-04-13T05:12:24.466Z,17.63
2017-04-13T05:13:22.953Z,19.12
2017-04-13T05:14:21.468Z,17.82
2017-04-13T05:15:20.089Z,18.43
2017-04-13T05:16:18.632Z,18.60
2017-04-13T05:17:17.400Z,19.00
2017-04-13T05:18:16.022Z,18.48
2017-04-13T05:19:14.595Z,32.62
2017-04-13T05:20:13.203Z,20.83
2017-04-13T05:21:12.179Z,20.30
2017-04-13T05:22:10.674Z,18.38
2017-04-13T05:23:09.424Z,16.22
2017-04-13T05:24:08.298Z,18.68
2017-04-13T05:25:07.279Z,17.23
2017-04-13T05:26:05.800Z,19.98
2017-04-13T05:27:04.441Z,17.52
2017-04-13T05:28:03.391Z,19.05
2017-04-13T05:29:01.943Z,18.27
2017-04-13T05:30:00.456Z,18.87
2017-04-13T05:30:59.232Z,17.67
2017-04-13T05:31:58.382Z,16.98
2017-04-13T05:32:56.984Z,18.52
2017-04-13T05:33:55.694Z,17.53
2017-04-13T05:34:54.243Z,19.55
2017-04-13T05:35:52.782Z,18.88
2017-04-13T05:36:51.349Z,18.52
2017-04-13T05:37:49.851Z,17.40
2017-04-13T05:38:48.510Z,16.23
2017-04-13T05:39:47.061Z,17.47
2017-04-13T05:40:45.625Z,17.17
2017-04-13T05:41:44.151Z,18.62
2017-04-13T05:42:42.652Z,16.68
2017-04-13T05:43:41.179Z,18.72
2017-04-13T05:44:39.697Z,18.38
2017-04-13T05:45:38.199Z,16.63
2017-04-13T05:46:37.275Z,16.47
2017-04-13T05:47:35.842Z,16.37
2017-04-13T05:48:34.403Z,17.47
2017-04-13T05:49:34.966Z,16.63
2017-04-13T05:50:33.592Z,18.15
2017-04-13T05:51:32.640Z,16.73
2017-04-13T05:52:34.603Z,17.42
2017-04-13T05:53:35.463Z,17.40
2017-04-13T05:54:34.003Z,17.33
2017-04-13T05:55:32.529Z,15.95
2017-04-13T05:56:31.026Z,17.05
2017-04-13T05:57:29.558Z,16.02
2017-04-13T05:58:28.076Z,15.95
2017-04-13T05:59:26.623Z,17.28
2017-04-13T06:00:25.202Z,16.52
2017-04-13T06:01:23.707Z,17.50
2017-04-13T06:02:22.273Z,16.40
2017-04-13T06:03:20.799Z,17.20
2017-04-13T06:04:19.351Z,16.87
2017-04-13T06:05:17.894Z,18.67
2017-04-13T06:06:16.462Z,17.95
2017-04-13T06:07:15.038Z,17.37
2017-04-13T06:08:13.686Z,17.47
2017-04-13T06:09:12.382Z,17.33
2017-04-13T06:10:11.026Z,16.48
2017-04-13T06:11:09.637Z,19.13
2017-04-13T06:12:08.215Z,17.05
2017-04-13T06:13:06.835Z,16.98
2017-04-13T06:14:05.358Z,18.28
2017-04-13T06:15:03.952Z,19.23
2017-04-13T06:16:02.678Z,18.45
2017-04-13T06:17:01.199Z,17.23
2017-04-13T06:17:59.708Z,19.68
2017-04-13T06:18:58.280Z,17.65
2017-04-13T06:19:56.783Z,18.52
2017-04-13T06:20:55.426Z,17.67
2017-04-13T06:21:53.951Z,18.65
2017-04-13T06:22:52.452Z,17.62
2017-04-13T06:23:50.979Z,19.65
2017-04-13T06:24:49.509Z,17.38
2017-04-13T06:25:48.099Z,19.33
2017-04-13T06:26:46.657Z,19.82
2017-04-13T06:27:45.164Z,16.27
2017-04-13T06:28:43.703Z,15.85
2017-04-13T06:29:42.395Z,16.28
2017-04-13T06:30:40.920Z,16.52
2017-04-13T06:31:39.463Z,15.43
2017-04-13T06:32:37.983Z,17.08
2017-04-13T06:33:36.520Z,15.55
2017-04-13T06:34:35.026Z,19.57
2017-04-13T06:35:33.648Z,13.07
2017-04-13T06:36:32.450Z,14.00
2017-04-13T06:37:31.058Z,13.05
2017-04-13T06:38:29.591Z,12.82
2017-04-13T06:39:28.178Z,11.43
2017-04-13T06:40:26.702Z,14.77
2017-04-13T06:41:25.271Z,13.58
2017-04-13T06:42:23.813Z,14.92
2017-04-13T06:43:22.390Z,13.93
2017-04-13T06:44:20.900Z,14.57
2017-04-13T06:45:19.414Z,12.77
2017-04-13T06:46:18.029Z,12.63
2017-04-13T06:47:16.604Z,11.58
2017-04-13T06:48:15.135Z,12.42
2017-04-13T06:49:13.683Z,11.95
2017-04-13T06:50:12.427Z,12.92
2017-04-13T06:51:11.007Z,12.63
2017-04-13T06:52:09.664Z,11.52
2017-04-13T06:53:08.279Z,12.17
2017-04-13T06:54:06.870Z,11.68
2017-04-13T06:55:05.518Z,12.50
2017-04-13T06:56:04.047Z,12.97
2017-04-13T06:57:02.577Z,12.50
2017-04-13T06:58:01.150Z,12.70
2017-04-13T06:58:59.679Z,13.02
2017-04-13T06:59:58.241Z,13.42
2017-04-13T07:00:56.851Z,17.20
2017-04-13T07:01:55.415Z,14.52
2017-04-13T07:02:55.888Z,12.52
2017-04-13T07:03:54.612Z,12.83
2017-04-13T07:04:53.498Z,12.87
2017-04-13T07:05:52.442Z,13.35
2017-04-13T07:06:50.926Z,12.02
2017-04-13T07:07:49.551Z,12.13
2017-04-13T07:08:48.151Z,11.68
2017-04-13T07:09:46.663Z,11.90
2017-04-13T07:10:45.175Z,13.67
2017-04-13T07:11:43.713Z,11.60
2017-04-13T07:12:42.297Z,11.23
2017-04-13T07:13:40.901Z,12.75
2017-04-13T07:14:39.382Z,11.13
2017-04-13T07:15:37.899Z,12.33
2017-04-13T07:16:36.507Z,10.88
2017-04-13T07:17:34.983Z,11.32
2017-04-13T07:18:33.563Z,11.95
2017-04-13T07:19:32.190Z,11.95
2017-04-13T07:20:31.043Z,11.78
2017-04-13T07:21:29.771Z,11.00
2017-04-13T07:22:28.274Z,9.83
2017-04-13T07:23:26.859Z,13.52
2017-04-13T07:24:25.416Z,10.57
2017-04-13T07:25:23.976Z,10.98
2017-04-13T07:26:22.487Z,11.97
2017-04-13T07:27:21.073Z,10.67
2017-04-13T07:28:19.630Z,10.72
2017-04-13T07:29:18.242Z,11.68
2017-04-13T07:30:16.894Z,10.60
2017-04-13T07:31:15.414Z,10.53
2017-04-13T07:32:14.016Z,8.50
2017-04-13T07:33:12.621Z,10.87
2017-04-13T07:34:11.235Z,9.80
2017-04-13T07:35:09.743Z,10.75
2017-04-13T07:36:08.294Z,11.18
2017-04-13T07:37:06.867Z,11.10
2017-04-13T07:38:05.403Z,16.47
2017-04-13T07:39:04.333Z,12.22
2017-04-13T07:40:02.835Z,12.15
2017-04-13T07:41:01.390Z,11.65
2017-04-13T07:41:59.912Z,11.12
2017-04-13T07:42:58.467Z,10.10
2017-04-13T07:43:57.039Z,11.82
2017-04-13T07:44:55.627Z,10.12
2017-04-13T07:45:54.190Z,9.98
2017-04-13T07:46:52.699Z,11.35
2017-04-13T07:47:51.211Z,9.87
2017-04-13T07:48:49.723Z,9.68
2017-04-13T07:49:48.211Z,9.67
2017-04-13T07:50:46.708Z,10.15
2017-04-13T07:51:45.220Z,8.50
2017-04-13T07:52:43.846Z,10.15
2017-04-13T07:53:42.423Z,10.10
2017-04-13T07:54:40.943Z,8.50
2017-04-13T07:55:39.587Z,9.25
2017-04-13T07:56:38.214Z,9.35
2017-04-13T07:57:37.615Z,8.33
2017-04-13T07:58:36.151Z,9.55
2017-04-13T07:59:34.665Z,8.47
2017-04-13T08:00:33.176Z,9.05
2017-04-13T08:01:31.729Z,10.03
2017-04-13T08:02:30.254Z,9.07
2017-04-13T08:03:28.883Z,10.40
2017-04-13T08:04:27.419Z,9.25
2017-04-13T08:05:25.964Z,10.87
2017-04-13T08:06:24.584Z,9.98
2017-04-13T08:07:23.131Z,9.18
2017-04-13T08:08:21.743Z,9.92
2017-04-13T08:09:20.314Z,9.82
2017-04-13T08:10:18.842Z,10.00
2017-04-13T08:11:17.376Z,9.30
2017-04-13T08:12:15.903Z,9.00
2017-04-13T08:13:14.415Z,9.55
2017-04-13T08:14:12.931Z,10.27
2017-04-13T08:15:11.455Z,9.23
2017-04-13T08:16:10.365Z,9.68
2017-04-13T08:17:08.984Z,9.08
2017-04-13T08:18:07.482Z,8.27
2017-04-13T08:19:06.087Z,8.82
2017-04-13T08:20:04.624Z,8.93
2017-04-13T08:21:03.185Z,9.37
2017-04-13T08:22:01.806Z,9.53
2017-04-13T08:23:00.366Z,9.63
2017-04-13T08:23:58.907Z,8.68
2017-04-13T08:24:57.480Z,10.32
2017-04-13T08:25:55.994Z,9.35
2017-04-13T08:26:54.568Z,10.55
2017-04-13T08:27:53.099Z,11.05
2017-04-13T08:28:51.592Z,9.58
2017-04-13T08:29:50.203Z,9.92
2017-04-13T08:30:48.836Z,8.43
2017-04-13T08:31:47.351Z,9.03
2017-04-13T08:32:45.851Z,9.82
2017-04-13T08:33:44.373Z,8.63
2017-04-13T08:34:42.888Z,8.93
2017-04-13T08:35:41.415Z,9.20
2017-04-13T08:36:39.974Z,8.02
2017-04-13T08:37:38.559Z,8.98
2017-04-13T08:38:37.159Z,8.63
2017-04-13T08:39:35.779Z,9.23
2017-04-13T08:40:34.447Z,11.62
2017-04-13T08:41:33.097Z,8.17
2017-04-13T08:42:31.580Z,9.60
2017-04-13T08:43:30.098Z,7.75
2017-04-13T08:44:28.633Z,7.12
2017-04-13T08:45:27.155Z,8.10
2017-04-13T08:46:25.627Z,8.22
2017-04-13T08:47:24.170Z,7.83
2017-04-13T08:48:22.703Z,7.05
2017-04-13T08:49:21.191Z,8.52
2017-04-13T08:50:19.784Z,7.50
2017-04-13T08:51:18.318Z,6.93
2017-04-13T08:52:16.839Z,7.88
2017-04-13T08:53:15.342Z,7.60
2017-04-13T08:54:13.865Z,8.30
2017-04-13T08:55:12.370Z,6.22
2017-04-13T08:56:10.908Z,7.17
2017-04-13T08:57:09.552Z,7.07
2017-04-13T08:58:08.064Z,6.90
2017-04-13T08:59:06.621Z,6.75
2017-04-13T09:00:05.130Z,7.35
2017-04-13T09:01:03.648Z,6.72
2017-04-13T09:02:02.226Z,6.68
2017-04-13T09:03:00.728Z,7.30
2017-04-13T09:03:59.293Z,6.50
2017-04-13T09:04:58.200Z,6.42
2017-04-13T09:05:57.219Z,6.78
2017-04-13T09:06:55.785Z,5.37
2017-04-13T09:07:54.380Z,5.33
2017-04-13T09:08:52.939Z,7.47
2017-04-13T09:09:51.475Z,6.68
2017-04-13T09:10:49.998Z,6.28
2017-04-13T09:11:48.540Z,6.07
2017-04-13T09:12:47.020Z,6.37
2017-04-13T09:13:45.584Z,6.50
2017-04-13T09:14:44.115Z,5.90
2017-04-13T09:15:42.604Z,5.65
2017-04-13T09:16:41.114Z,6.35
2017-04-13T09:17:39.607Z,5.87
2017-04-13T09:18:38.127Z,5.73
2017-04-13T09:19:36.750Z,7.10
2017-04-13T09:20:35.261Z,5.17
2017-04-13T09:21:33.820Z,6.53
2017-04-13T09:22:32.351Z,6.68
2017-04-13T09:23:30.855Z,6.17
2017-04-13T09:24:29.470Z,6.25
2017-04-13T09:25:27.975Z,6.23
2017-04-13T09:26:26.558Z,6.05
2017-04-13T09:27:25.198Z,22.38
2017-04-13T09:28:23.722Z,6.10
2017-04-13T09:29:22.260Z,6.38
2017-04-13T09:30:20.831Z,6.38
2017-04-13T09:31:19.381Z,6.28
2017-04-13T09:32:17.935Z,6.00
2017-04-13T09:33:16.494Z,6.47
2017-04-13T09:34:15.167Z,6.48
2017-04-13T09:35:13.719Z,7.18
2017-04-13T09:36:12.392Z,6.25
2017-04-13T09:37:10.971Z,6.33
2017-04-13T09:38:09.458Z,6.20
2017-04-13T09:39:08.002Z,6.25
2017-04-13T09:40:06.486Z,5.80
2017-04-13T09:41:05.138Z,5.58
2017-04-13T09:42:03.727Z,5.75
2017-04-13T09:43:02.248Z,6.22
2017-04-13T09:44:00.787Z,5.77
2017-04-13T09:44:59.307Z,6.83
2017-04-13T09:45:57.897Z,5.82
2017-04-13T09:46:56.427Z,7.90
2017-04-13T09:47:54.956Z,8.20
2017-04-13T09:48:53.479Z,7.05
2017-04-13T09:49:52.008Z,8.78
2017-04-13T09:50:50.548Z,7.23
2017-04-13T09:51:49.121Z,6.40
2017-04-13T09:52:47.897Z,7.42
2017-04-13T09:53:46.410Z,6.68
2017-04-13T09:54:44.968Z,6.13
2017-04-13T09:55:43.514Z,6.25
2017-04-13T09:56:42.104Z,6.67
2017-04-13T09:57:40.635Z,5.85
2017-04-13T09:58:39.275Z,6.98
2017-04-13T09:59:37.856Z,6.43
2017-04-13T10:00:36.556Z,6.67
2017-04-13T10:01:35.079Z,6.35
2017-04-13T10:02:33.591Z,6.33
2017-04-13T10:03:32.121Z,7.35
2017-04-13T10:04:30.637Z,7.75
2017-04-13T10:05:29.260Z,7.20
2017-04-13T10:06:27.903Z,5.22
2017-04-13T10:07:26.508Z,5.70
2017-04-13T10:08:25.130Z,5.72
2017-04-13T10:09:23.667Z,6.75
2017-04-13T10:10:22.239Z,5.37
2017-04-13T10:11:20.819Z,5.87
2017-04-13T10:12:19.347Z,6.53
2017-04-13T10:13:17.874Z,6.08
2017-04-13T10:14:16.431Z,6.23
2017-04-13T10:15:15.028Z,6.90
2017-04-13T10:16:13.559Z,6.33
2017-04-13T10:17:12.099Z,5.67
2017-04-13T10:18:10.800Z,6.13
2017-04-13T10:19:09.318Z,7.53
2017-04-13T10:20:07.868Z,5.77
2017-04-13T10:21:06.410Z,5.15
2017-04-13T10:22:04.970Z,5.02
2017-04-13T10:23:03.489Z,5.37
2017-04-13T10:24:02.063Z,7.03
2017-04-13T10:25:00.725Z,5.28
2017-04-13T10:25:59.239Z,6.00
2017-04-13T10:26:57.767Z,5.68
2017-04-13T10:27:56.278Z,5.60
2017-04-13T10:28:54.834Z,5.75
2017-04-13T10:29:53.338Z,5.72
2017-04-13T10:30:51.846Z,6.70
2017-04-13T10:31:50.387Z,5.67
2017-04-13T10:32:48.944Z,5.35
2017-04-13T10:33:47.476Z,6.57
2017-04-13T10:34:45.977Z,4.90
2017-04-13T10:35:44.601Z,5.23
2017-04-13T10:36:43.185Z,6.27
2017-04-13T10:37:41.708Z,4.28
2017-04-13T10:38:40.198Z,5.02
2017-04-13T10:39:38.723Z,4.78
2017-04-13T10:40:37.216Z,5.20
2017-04-13T10:41:35.786Z,4.43
2017-04-13T10:42:34.450Z,3.33
2017-04-13T10:43:33.079Z,4.95
2017-04-13T10:44:31.713Z,4.22
2017-04-13T10:45:30.240Z,4.18
2017-04-13T10:46:28.987Z,3.48
2017-04-13T10:47:27.618Z,4.53
2017-04-13T10:48:26.173Z,3.58
2017-04-13T10:49:24.735Z,3.72
2017-04-13T10:50:23.334Z,4.28
2017-04-13T10:51:21.894Z,4.13
2017-04-13T10:52:20.418Z,4.05
2017-04-13T10:53:18.967Z,5.40
2017-04-13T10:54:17.521Z,3.68
2017-04-13T10:55:16.028Z,3.07
2017-04-13T10:56:14.618Z,4.07
2017-04-13T10:57:13.125Z,3.87
2017-04-13T10:58:11.663Z,3.92
2017-04-13T10:59:10.182Z,3.82
2017-04-13T11:00:08.751Z,4.32
2017-04-13T11:01:07.291Z,4.43
2017-04-13T11:02:05.846Z,4.03
2017-04-13T11:03:04.352Z,4.30
2017-04-13T11:04:03.309Z,4.45
2017-04-13T11:05:02.280Z,4.80
2017-04-13T11:06:00.828Z,5.18
2017-04-13T11:06:59.444Z,4.23
2017-04-13T11:07:57.987Z,4.30
2017-04-13T11:08:56.667Z,3.88
2017-04-13T11:09:55.275Z,4.38
2017-04-13T11:10:53.936Z,4.60
2017-04-13T11:11:52.441Z,5.87
2017-04-13T11:12:50.973Z,3.90
2017-04-13T11:13:49.598Z,4.35
2017-04-13T11:14:48.112Z,4.57
2017-04-13T11:15:46.642Z,6.10
2017-04-13T11:16:45.203Z,5.53
2017-04-13T11:17:43.727Z,6.23
2017-04-13T11:18:42.324Z,4.67
2017-04-13T11:19:40.927Z,4.33
2017-04-13T11:20:39.990Z,5.22
2017-04-13T11:21:38.797Z,4.50
2017-04-13T11:22:37.403Z,5.13
2017-04-13T11:23:35.923Z,5.83
2017-04-13T11:24:34.434Z,6.47
2017-04-13T11:25:33.006Z,5.42
2017-04-13T11:26:31.542Z,5.05
2017-04-13T11:27:30.169Z,5.42
2017-04-13T11:28:28.729Z,5.25
2017-04-13T11:29:27.278Z,5.62
2017-04-13T11:30:25.771Z,4.78
2017-04-13T11:31:24.295Z,5.52
2017-04-13T11:32:22.867Z,5.80
2017-04-13T11:33:21.574Z,5.48
2017-04-13T11:34:20.140Z,5.48
2017-04-13T11:35:18.841Z,6.68
2017-04-13T11:36:17.421Z,5.10
2017-04-13T11:37:15.978Z,6.32
2017-04-13T11:38:14.512Z,6.33
2017-04-13T11:39:13.028Z,5.60
2017-04-13T11:40:11.558Z,6.08
2017-04-13T11:41:10.163Z,6.38
2017-04-13T11:42:08.755Z,7.22
2017-04-13T11:43:07.296Z,6.35
2017-04-13T11:44:05.760Z,7.22
2017-04-13T11:45:04.367Z,6.60
2017-04-13T11:46:03.367Z,7.70
2017-04-13T11:47:01.996Z,8.42
2017-04-13T11:48:00.539Z,8.95
2017-04-13T11:48:59.076Z,8.37
2017-04-13T11:49:57.642Z,8.30
2017-04-13T11:50:56.207Z,8.62
2017-04-13T11:51:54.732Z,8.43
2017-04-13T11:52:53.256Z,9.05
2017-04-13T11:53:51.781Z,11.15
2017-04-13T11:54:50.376Z,7.37
2017-04-13T11:55:48.920Z,8.93
2017-04-13T11:56:47.476Z,8.83
2017-04-13T11:57:45.979Z,9.88
2017-04-13T11:58:44.470Z,8.45
2017-04-13T11:59:42.976Z,8.22
2017-04-13T12:00:41.547Z,8.92
2017-04-13T12:01:40.113Z,8.58
2017-04-13T12:02:38.637Z,8.57
2017-04-13T12:03:37.198Z,9.48
2017-04-13T12:04:35.867Z,8.98
2017-04-13T12:05:34.430Z,9.95
2017-04-13T12:06:32.976Z,7.15
2017-04-13T12:07:31.648Z,8.25
2017-04-13T12:08:30.236Z,7.92
2017-04-13T12:09:28.898Z,8.65
2017-04-13T12:10:27.495Z,7.70
2017-04-13T12:11:26.052Z,8.50
2017-04-13T12:12:24.568Z,11.25
2017-04-13T12:13:23.090Z,7.28
2017-04-13T12:14:21.659Z,7.98
2017-04-13T12:15:20.198Z,7.68
2017-04-13T12:16:18.781Z,7.90
2017-04-13T12:17:17.324Z,7.78
2017-04-13T12:18:15.854Z,7.62
2017-04-13T12:19:14.499Z,8.32
2017-04-13T12:20:13.395Z,8.85
2017-04-13T12:21:11.908Z,8.05
2017-04-13T12:22:10.506Z,10.62
2017-04-13T12:23:09.103Z,7.75
2017-04-13T12:24:07.714Z,8.02
2017-04-13T12:25:06.259Z,8.80
2017-04-13T12:26:04.836Z,8.75
2017-04-13T12:27:03.683Z,8.98
2017-04-13T12:28:02.198Z,8.60
2017-04-13T12:29:00.767Z,9.77
2017-04-13T12:29:59.283Z,9.52
2017-04-13T12:30:57.806Z,8.82
2017-04-13T12:31:56.376Z,8.38
2017-04-13T12:32:54.892Z,8.83
2017-04-13T12:33:53.571Z,8.50
2017-04-13T12:34:52.169Z,9.25
2017-04-13T12:35:50.695Z,9.38
2017-04-13T12:36:49.210Z,8.97
2017-04-13T12:37:47.740Z,8.88
2017-04-13T12:38:46.299Z,7.87
2017-04-13T12:39:44.898Z,8.67
2017-04-13T12:40:43.402Z,9.00
2017-04-13T12:41:42.048Z,8.15
2017-04-13T12:42:40.668Z,9.50
2017-04-13T12:43:39.218Z,8.30
2017-04-13T12:44:37.755Z,7.52